createdAt,value
2024-04-30T00:00:57.952Z,99.90
2024-04-30T00:03:26.391Z,99.90
2024-04-30T00:05:53.943Z,99.90
2024-04-30T00:08:21.480Z,99.90
2024-04-30T00:10:49.057Z,99.90
2024-04-30T00:13:16.613Z,99.90
2024-04-30T00:15:44.328Z,99.90
2024-04-30T00:18:11.904Z,99.90
2024-04-30T00:20:39.384Z,99.90
2024-04-30T00:23:06.919Z,99.90
2024-04-30T00:25:34.514Z,99.90
2024-04-30T00:28:02.082Z,99.90
2024-04-30T00:30:29.649Z,99.90
2024-04-30T00:32:57.223Z,99.90
2024-04-30T00:35:24.766Z,99.90
2024-04-30T00:37:52.332Z,99.90
2024-04-30T00:40:19.987Z,99.90
2024-04-30T00:42:47.562Z,99.90
2024-04-30T00:45:15.047Z,99.90
2024-04-30T00:47:42.720Z,99.90
2024-04-30T00:50:10.828Z,99.90
2024-04-30T00:52:38.954Z,99.90
2024-04-30T00:55:06.683Z,99.90
2024-04-30T00:57:34.297Z,99.90
2024-04-30T01:00:01.896Z,99.90
2024-04-30T01:02:29.510Z,99.90
2024-04-30T01:04:58.448Z,99.90
2024-04-30T01:07:25.998Z,99.90
2024-04-30T01:09:54.223Z,99.90
2024-04-30T01:12:23.573Z,99.90
2024-04-30T01:14:51.117Z,99.90
2024-04-30T01:17:18.657Z,99.90
2024-04-30T01:19:46.441Z,99.90
2024-04-30T01:22:14.021Z,99.90
2024-04-30T01:24:41.537Z,99.90
2024-04-30T01:27:09.053Z,99.90
2024-04-30T01:29:36.519Z,99.90
2024-04-30T01:32:04.316Z,99.90
2024-04-30T01:34:31.956Z,99.90
2024-04-30T01:36:59.758Z,99.90
2024-04-30T01:39:27.288Z,99.90
2024-04-30T01:41:54.777Z,99.90
2024-04-30T01:44:22.268Z,99.90
2024-04-30T01:46:49.791Z,99.90
2024-04-30T01:49:17.320Z,99.90
2024-04-30T01:51:44.890Z,99.90
2024-04-30T01:54:12.390Z,99.90
2024-04-30T01:56:39.856Z,99.90
2024-04-30T01:59:07.351Z,99.90
2024-04-30T02:01:35.638Z,99.90
2024-04-30T02:04:03.327Z,99.90
2024-04-30T02:06:30.862Z,99.90
2024-04-30T02:08:58.405Z,99.90
2024-04-30T02:11:26.689Z,99.90
2024-04-30T02:13:54.230Z,99.90
2024-04-30T02:16:21.863Z,99.90
2024-04-30T02:18:49.371Z,99.90
2024-04-30T02:21:16.855Z,99.90
2024-04-30T02:23:44.364Z,99.90
2024-04-30T02:26:11.908Z,99.90
2024-04-30T02:28:40.394Z,99.90
2024-04-30T02:31:26.509Z,99.90
2024-04-30T02:34:12.802Z,99.90
2024-04-30T02:36:40.384Z,99.90
2024-04-30T02:39:08.309Z,99.90
2024-04-30T02:41:35.826Z,99.90
2024-04-30T02:44:03.346Z,99.90
2024-04-30T02:46:31.003Z,99.90
2024-04-30T02:48:58.648Z,99.90
2024-04-30T02:51:26.198Z,99.90
2024-04-30T02:53:53.706Z,99.90
2024-04-30T02:56:21.251Z,99.90
2024-04-30T02:58:48.833Z,99.90
2024-04-30T03:01:16.455Z,99.90
2024-04-30T03:03:44.765Z,99.90
2024-04-30T03:06:12.560Z,99.90
2024-04-30T03:08:41.241Z,99.90
2024-04-30T03:11:08.826Z,99.90
2024-04-30T03:13:36.424Z,99.90
2024-04-30T03:16:04.818Z,99.90
2024-04-30T03:18:32.382Z,99.90
2024-04-30T03:21:00.170Z,99.90
2024-04-30T03:23:27.696Z,99.90
2024-04-30T03:25:55.185Z,99.90
2024-04-30T03:28:22.776Z,99.90
2024-04-30T03:30:53.088Z,99.90
2024-04-30T03:33:21.472Z,99.90
2024-04-30T03:35:49.000Z,99.90
2024-04-30T03:38:16.537Z,99.90
2024-04-30T03:40:44.144Z,99.90
2024-04-30T03:43:11.666Z,99.90
2024-04-30T03:45:40.056Z,99.90
2024-04-30T03:48:08.010Z,99.90
2024-04-30T03:50:35.652Z,99.90
2024-04-30T03:53:03.182Z,99.90
2024-04-30T03:55:30.737Z,99.90
2024-04-30T03:57:58.242Z,99.90
2024-04-30T04:00:25.827Z,99.90
2024-04-30T04:02:53.409Z,99.90
2024-04-30T04:05:20.984Z,99.90
2024-04-30T04:07:48.533Z,99.90
2024-04-30T04:10:16.131Z,99.90
2024-04-30T04:13:02.216Z,99.90
2024-04-30T04:15:29.744Z,99.90
2024-04-30T04:17:57.300Z,99.90
2024-04-30T04:20:24.860Z,99.90
2024-04-30T04:22:53.471Z,99.90
2024-04-30T04:25:21.001Z,99.90
2024-04-30T04:27:48.517Z,99.90
2024-04-30T04:30:17.977Z,99.90
2024-04-30T04:32:45.927Z,99.90
2024-04-30T04:35:13.617Z,99.90
2024-04-30T04:37:41.198Z,99.90
2024-04-30T04:40:09.106Z,99.90
2024-04-30T04:42:36.631Z,99.90
2024-04-30T04:45:04.300Z,99.90
2024-04-30T04:47:31.914Z,99.90
2024-04-30T04:49:59.501Z,99.90
2024-04-30T04:52:27.026Z,99.90
2024-04-30T04:54:54.511Z,99.90
2024-04-30T04:57:22.021Z,99.90
2024-04-30T04:59:49.509Z,99.90
2024-04-30T05:02:17.107Z,99.90
2024-04-30T05:04:44.740Z,99.90
2024-04-30T05:07:12.353Z,99.90
2024-04-30T05:09:39.903Z,99.90
2024-04-30T05:12:07.529Z,99.90
2024-04-30T05:14:35.041Z,99.90
2024-04-30T05:17:02.602Z,99.90
2024-04-30T05:19:30.172Z,99.90
2024-04-30T05:21:57.768Z,99.90
2024-04-30T05:24:25.311Z,99.90
2024-04-30T05:26:52.819Z,99.90
2024-04-30T05:29:20.304Z,99.90
2024-04-30T05:31:47.852Z,99.90
2024-04-30T05:34:15.430Z,99.90
2024-04-30T05:36:42.956Z,99.90
2024-04-30T05:39:10.436Z,99.90
2024-04-30T05:41:37.921Z,99.90
2024-04-30T05:44:05.442Z,99.90
2024-04-30T05:46:33.091Z,99.90
2024-04-30T05:49:00.674Z,99.90
2024-04-30T05:51:28.197Z,99.90
2024-04-30T05:53:56.580Z,99.90
2024-04-30T05:56:24.187Z,99.90
2024-04-30T05:58:51.693Z,99.90
2024-04-30T06:01:19.245Z,99.90
2024-04-30T06:03:46.860Z,99.90
2024-04-30T06:06:14.560Z,99.90
2024-04-30T06:08:42.133Z,99.90
2024-04-30T06:11:09.842Z,99.90
2024-04-30T06:13:37.524Z,99.90
2024-04-30T06:16:05.563Z,99.90
2024-04-30T06:18:33.174Z,99.90
2024-04-30T06:21:00.762Z,99.90
2024-04-30T06:23:28.269Z,99.90
2024-04-30T06:25:55.810Z,99.90
2024-04-30T06:28:23.366Z,99.90
2024-04-30T06:30:51.053Z,99.90
2024-04-30T06:33:18.802Z,99.90
2024-04-30T06:35:46.400Z,99.90
2024-04-30T06:38:14.087Z,99.90
2024-04-30T06:40:41.792Z,99.90
2024-04-30T06:43:09.403Z,99.90
2024-04-30T06:45:36.943Z,99.90
2024-04-30T06:48:05.767Z,99.90
2024-04-30T06:50:35.212Z,99.90
2024-04-30T06:53:02.767Z,99.90
2024-04-30T06:55:30.295Z,99.90
2024-04-30T06:57:57.798Z,99.90
2024-04-30T07:00:25.343Z,99.90
2024-04-30T07:02:52.924Z,99.90
2024-04-30T07:05:20.667Z,99.90
2024-04-30T07:07:48.203Z,99.90
2024-04-30T07:10:15.935Z,99.90
2024-04-30T07:12:43.434Z,99.90
2024-04-30T07:15:10.959Z,99.90
2024-04-30T07:17:41.642Z,99.90
2024-04-30T07:20:09.822Z,99.90
2024-04-30T07:22:37.427Z,99.90
2024-04-30T07:25:05.424Z,99.90
2024-04-30T07:27:33.159Z,99.90
2024-04-30T07:30:00.686Z,99.90
2024-04-30T07:32:29.257Z,99.90
2024-04-30T07:34:57.199Z,99.90
2024-04-30T07:37:25.096Z,99.90
2024-04-30T07:39:52.673Z,99.90
2024-04-30T07:42:20.170Z,99.90
2024-04-30T07:44:47.750Z,99.90
2024-04-30T07:47:15.534Z,99.90
2024-04-30T07:49:43.180Z,99.90
2024-04-30T07:52:10.734Z,99.90
2024-04-30T07:54:38.287Z,99.50
2024-04-30T07:57:06.080Z,99.90
2024-04-30T07:59:33.612Z,99.90
2024-04-30T08:02:01.433Z,99.90
2024-04-30T08:04:29.039Z,99.70
2024-04-30T08:06:56.646Z,99.60
2024-04-30T08:09:24.194Z,99.10
2024-04-30T08:11:52.314Z,98.10
2024-04-30T08:14:19.844Z,97.70
2024-04-30T08:16:47.561Z,98.10
2024-04-30T08:19:15.252Z,97.70
2024-04-30T08:21:42.831Z,97.60
2024-04-30T08:24:10.418Z,95.40
2024-04-30T08:26:38.935Z,96.30
2024-04-30T08:29:06.524Z,96.00
2024-04-30T08:31:34.555Z,95.30
2024-04-30T08:34:02.082Z,95.70
2024-04-30T08:36:31.274Z,94.10
2024-04-30T08:39:00.272Z,94.40
2024-04-30T08:41:30.447Z,90.30
2024-04-30T08:44:00.359Z,91.30
2024-04-30T08:46:30.310Z,93.10
2024-04-30T08:48:59.113Z,88.10
2024-04-30T08:51:27.664Z,83.50
2024-04-30T08:53:55.456Z,90.20
2024-04-30T08:56:23.844Z,88.10
2024-04-30T08:58:51.405Z,85.90
2024-04-30T09:01:20.622Z,85.20
2024-04-30T09:03:48.734Z,82.80
2024-04-30T09:06:16.890Z,76.70
2024-04-30T09:08:47.632Z,81.20
2024-04-30T09:11:16.737Z,78.80
2024-04-30T09:13:45.145Z,75.50
2024-04-30T09:16:13.818Z,80.70
2024-04-30T09:18:51.412Z,77.80
2024-04-30T09:21:28.694Z,72.50
2024-04-30T09:24:11.707Z,71.40
2024-04-30T09:26:40.289Z,70.60
2024-04-30T09:29:07.939Z,73.00
2024-04-30T09:31:39.641Z,69.20
2024-04-30T09:34:08.957Z,74.40
2024-04-30T09:36:37.725Z,72.70
2024-04-30T09:39:09.254Z,74.70
2024-04-30T09:41:38.794Z,71.30
2024-04-30T09:44:07.367Z,72.40
2024-04-30T09:46:36.423Z,66.60
2024-04-30T09:49:07.922Z,69.10
2024-04-30T09:51:38.718Z,70.20
2024-04-30T09:54:06.969Z,66.10
2024-04-30T09:56:34.524Z,70.90
2024-04-30T09:59:02.156Z,67.30
2024-04-30T10:01:31.992Z,63.40
2024-04-30T10:04:01.558Z,64.70
2024-04-30T10:06:30.581Z,68.50
2024-04-30T10:08:58.730Z,68.60
2024-04-30T10:11:26.314Z,66.70
2024-04-30T10:13:55.643Z,63.40
2024-04-30T10:16:23.482Z,65.70
2024-04-30T10:19:02.655Z,62.50
2024-04-30T10:21:37.194Z,61.50
2024-04-30T10:24:18.318Z,61.60
2024-04-30T10:26:46.820Z,61.60
2024-04-30T10:29:14.918Z,63.20
2024-04-30T10:31:43.119Z,63.70
2024-04-30T10:34:14.129Z,65.70
2024-04-30T10:36:48.164Z,65.80
2024-04-30T10:39:26.533Z,62.30
2024-04-30T10:41:54.546Z,62.00
2024-04-30T10:44:22.085Z,62.10
2024-04-30T10:46:50.430Z,61.10
2024-04-30T10:49:21.473Z,62.60
2024-04-30T10:51:49.391Z,60.90
2024-04-30T10:54:19.742Z,59.70
2024-04-30T10:56:47.269Z,59.80
2024-04-30T10:59:14.805Z,61.20
2024-04-30T11:01:42.354Z,59.90
2024-04-30T11:04:13.720Z,61.40
2024-04-30T11:06:45.735Z,60.40
2024-04-30T11:09:15.463Z,58.60
2024-04-30T11:11:48.597Z,56.70
2024-04-30T11:14:17.307Z,59.60
2024-04-30T11:16:47.194Z,59.60
2024-04-30T11:19:15.448Z,61.50
2024-04-30T11:21:43.259Z,60.40
2024-04-30T11:24:10.932Z,60.50
2024-04-30T11:26:38.897Z,59.80
2024-04-30T11:29:23.449Z,59.00
2024-04-30T11:31:54.137Z,58.00
2024-04-30T11:34:21.643Z,57.70
2024-04-30T11:36:49.275Z,58.00
2024-04-30T11:39:16.979Z,57.30
2024-04-30T11:41:52.277Z,57.30
2024-04-30T11:44:28.678Z,57.10
2024-04-30T11:46:56.212Z,57.90
2024-04-30T11:49:23.772Z,58.70
2024-04-30T11:51:51.289Z,58.10
2024-04-30T11:54:18.790Z,57.20
2024-04-30T11:56:46.361Z,59.50
2024-04-30T11:59:13.937Z,58.50
2024-04-30T12:01:41.647Z,57.70
2024-04-30T12:04:09.213Z,57.00
2024-04-30T12:06:38.846Z,56.10
2024-04-30T12:09:06.828Z,57.30
2024-04-30T12:11:40.665Z,54.90
2024-04-30T12:14:08.218Z,56.90
2024-04-30T12:16:35.817Z,60.40
2024-04-30T12:19:04.983Z,57.80
2024-04-30T12:21:32.523Z,57.10
2024-04-30T12:24:00.153Z,53.90
2024-04-30T12:26:27.713Z,54.60
2024-04-30T12:28:55.231Z,57.10
2024-04-30T12:31:22.809Z,54.90
2024-04-30T12:33:50.387Z,59.50
2024-04-30T12:36:17.969Z,60.20
2024-04-30T12:38:45.481Z,62.60
2024-04-30T12:41:13.185Z,59.80
2024-04-30T12:43:40.799Z,58.50
2024-04-30T12:46:08.556Z,55.90
2024-04-30T12:48:36.217Z,57.30
2024-04-30T12:51:04.463Z,56.10
2024-04-30T12:53:31.996Z,55.80
2024-04-30T12:55:59.789Z,57.80
2024-04-30T12:58:28.023Z,55.90
2024-04-30T13:00:55.798Z,56.90
2024-04-30T13:03:23.406Z,57.60
2024-04-30T13:05:51.059Z,56.30
2024-04-30T13:08:19.247Z,56.70
2024-04-30T13:10:46.824Z,56.80
2024-04-30T13:13:14.673Z,56.10
2024-04-30T13:15:42.255Z,56.50
2024-04-30T13:18:09.785Z,55.50
2024-04-30T13:20:39.368Z,58.40
2024-04-30T13:23:06.890Z,57.80
2024-04-30T13:25:34.505Z,55.80
2024-04-30T13:28:02.299Z,54.80
2024-04-30T13:30:29.811Z,54.60
2024-04-30T13:32:57.351Z,55.80
2024-04-30T13:35:24.962Z,55.40
2024-04-30T13:37:52.569Z,54.90
2024-04-30T13:40:20.174Z,54.60
2024-04-30T13:42:47.863Z,55.00
2024-04-30T13:45:15.502Z,54.70
2024-04-30T13:47:43.101Z,53.50
2024-04-30T13:50:11.912Z,53.60
2024-04-30T13:52:39.491Z,54.50
2024-04-30T13:55:07.767Z,54.80
2024-04-30T13:57:35.303Z,54.00
2024-04-30T14:00:02.846Z,55.20
2024-04-30T14:02:38.251Z,55.40
2024-04-30T14:05:06.274Z,55.60
2024-04-30T14:07:33.931Z,55.30
2024-04-30T14:10:01.570Z,54.40
2024-04-30T14:12:29.156Z,55.50
2024-04-30T14:14:56.656Z,54.00
2024-04-30T14:17:24.181Z,55.30
2024-04-30T14:19:51.984Z,56.80
2024-04-30T14:22:19.613Z,55.20
2024-04-30T14:24:47.158Z,54.70
2024-04-30T14:27:14.776Z,54.60
2024-04-30T14:29:42.332Z,56.00
2024-04-30T14:32:10.395Z,55.70
2024-04-30T14:34:38.136Z,55.40
2024-04-30T14:37:05.802Z,56.20
2024-04-30T14:39:33.470Z,55.80
2024-04-30T14:42:01.176Z,56.90
2024-04-30T14:44:28.909Z,56.60
2024-04-30T14:46:56.493Z,58.00
2024-04-30T14:49:24.085Z,58.00
2024-04-30T14:51:51.623Z,59.40
2024-04-30T14:54:19.451Z,59.70
2024-04-30T14:56:47.163Z,56.90
2024-04-30T14:59:15.098Z,57.80
2024-04-30T15:01:45.650Z,57.80
2024-04-30T15:04:13.547Z,55.80
2024-04-30T15:06:41.305Z,56.20
2024-04-30T15:09:12.198Z,53.30
2024-04-30T15:11:39.761Z,55.60
2024-04-30T15:14:07.529Z,54.70
2024-04-30T15:16:35.450Z,54.80
2024-04-30T15:19:03.062Z,55.40
2024-04-30T15:21:30.556Z,55.20
2024-04-30T15:23:58.052Z,55.20
2024-04-30T15:26:25.599Z,55.00
2024-04-30T15:28:53.550Z,54.10
2024-04-30T15:31:21.623Z,57.00
2024-04-30T15:33:49.711Z,54.70
2024-04-30T15:36:17.355Z,57.10
2024-04-30T15:38:46.502Z,54.90
2024-04-30T15:41:23.802Z,55.10
2024-04-30T15:43:51.841Z,57.20
2024-04-30T15:46:19.709Z,55.90
2024-04-30T15:48:50.362Z,56.10
2024-04-30T15:51:18.449Z,55.30
2024-04-30T15:53:45.991Z,56.80
2024-04-30T15:56:18.279Z,53.30
2024-04-30T15:58:48.133Z,56.00
2024-04-30T16:01:16.359Z,54.90
2024-04-30T16:03:44.947Z,54.20
2024-04-30T16:06:14.078Z,54.90
2024-04-30T16:08:41.894Z,54.50
2024-04-30T16:11:11.310Z,54.40
2024-04-30T16:13:41.412Z,54.90
2024-04-30T16:16:16.246Z,55.40
2024-04-30T16:18:47.361Z,55.50
2024-04-30T16:21:16.266Z,56.10
2024-04-30T16:23:45.137Z,56.10
2024-04-30T16:26:12.782Z,55.60
2024-04-30T16:28:44.549Z,55.40
2024-04-30T16:31:15.416Z,54.80
2024-04-30T16:33:43.799Z,55.80
2024-04-30T16:36:20.585Z,54.20
2024-04-30T16:38:49.633Z,54.40
2024-04-30T16:41:17.412Z,56.00
2024-04-30T16:43:44.996Z,56.40
2024-04-30T16:46:12.597Z,56.40
2024-04-30T16:48:40.231Z,57.00
2024-04-30T16:51:13.155Z,57.00
2024-04-30T16:53:40.863Z,56.90
2024-04-30T16:56:08.379Z,56.90
2024-04-30T16:58:37.741Z,57.60
2024-04-30T17:01:05.378Z,57.70
2024-04-30T17:03:34.620Z,58.30
2024-04-30T17:06:06.242Z,60.30
2024-04-30T17:08:33.826Z,58.80
2024-04-30T17:11:01.407Z,57.60
2024-04-30T17:13:28.982Z,58.90
2024-04-30T17:15:56.630Z,60.20
2024-04-30T17:18:24.328Z,59.80
2024-04-30T17:20:51.850Z,61.10
2024-04-30T17:23:19.345Z,61.20
2024-04-30T17:25:46.880Z,61.10
2024-04-30T17:28:17.846Z,61.10
2024-04-30T17:30:45.412Z,60.30
2024-04-30T17:33:13.174Z,59.40
2024-04-30T17:35:40.887Z,60.40
2024-04-30T17:38:10.072Z,60.30
2024-04-30T17:40:37.587Z,62.80
2024-04-30T17:43:06.580Z,62.00
2024-04-30T17:45:34.228Z,60.00
2024-04-30T17:48:02.000Z,60.80
2024-04-30T17:50:29.602Z,61.20
2024-04-30T17:52:57.214Z,61.20
2024-04-30T17:55:24.759Z,62.30
2024-04-30T17:57:52.525Z,62.70
2024-04-30T18:00:20.308Z,63.00
2024-04-30T18:02:48.064Z,62.70
2024-04-30T18:05:15.683Z,64.20
2024-04-30T18:07:44.452Z,63.80
2024-04-30T18:10:14.844Z,64.50
2024-04-30T18:12:43.385Z,64.70
2024-04-30T18:15:16.033Z,63.40
2024-04-30T18:17:43.747Z,63.50
2024-04-30T18:20:11.407Z,63.90
2024-04-30T18:22:40.192Z,64.40
2024-04-30T18:25:08.144Z,65.50
2024-04-30T18:27:35.743Z,67.20
2024-04-30T18:30:04.924Z,67.90
2024-04-30T18:32:32.431Z,69.40
2024-04-30T18:35:01.167Z,70.90
2024-04-30T18:37:28.643Z,70.10
2024-04-30T18:39:56.240Z,71.30
2024-04-30T18:42:23.853Z,71.20
2024-04-30T18:44:51.820Z,70.90
2024-04-30T18:47:19.419Z,70.60
2024-04-30T18:49:47.047Z,70.70
2024-04-30T18:52:15.811Z,71.40
2024-04-30T18:54:43.437Z,71.10
2024-04-30T18:57:11.361Z,72.40
2024-04-30T18:59:38.886Z,72.90
2024-04-30T19:02:06.396Z,72.70
2024-04-30T19:04:34.651Z,72.80
2024-04-30T19:07:02.255Z,74.30
2024-04-30T19:09:29.844Z,74.60
2024-04-30T19:11:57.399Z,75.30
2024-04-30T19:14:24.904Z,75.00
2024-04-30T19:16:52.553Z,75.50
2024-04-30T19:19:21.480Z,74.60
2024-04-30T19:21:50.038Z,75.30
2024-04-30T19:24:19.608Z,74.80
2024-04-30T19:26:47.724Z,74.80
2024-04-30T19:29:15.383Z,75.10
2024-04-30T19:31:42.925Z,76.70
2024-04-30T19:34:11.345Z,76.40
2024-04-30T19:36:39.000Z,76.90
2024-04-30T19:39:06.567Z,77.30
2024-04-30T19:41:35.219Z,79.00
2024-04-30T19:44:02.911Z,78.30
2024-04-30T19:46:30.424Z,80.20
2024-04-30T19:48:58.540Z,80.70
2024-04-30T19:51:26.191Z,80.20
2024-04-30T19:53:53.793Z,81.70
2024-04-30T19:56:21.850Z,83.80
2024-04-30T19:58:56.782Z,85.30
2024-04-30T20:01:28.797Z,85.80
2024-04-30T20:03:58.342Z,84.30
2024-04-30T20:06:26.743Z,84.60
2024-04-30T20:08:54.296Z,85.10
2024-04-30T20:11:25.046Z,86.00
2024-04-30T20:13:53.573Z,86.70
2024-04-30T20:16:21.198Z,86.50
2024-04-30T20:18:49.697Z,87.70
2024-04-30T20:21:17.612Z,86.20
2024-04-30T20:23:45.456Z,87.50
2024-04-30T20:26:13.143Z,87.30
2024-04-30T20:28:40.921Z,85.80
2024-04-30T20:31:08.533Z,85.40
2024-04-30T20:33:36.208Z,87.70
2024-04-30T20:36:03.959Z,87.90
2024-04-30T20:38:32.684Z,88.20
2024-04-30T20:41:00.210Z,87.20
2024-04-30T20:43:27.742Z,88.10
2024-04-30T20:45:55.430Z,88.20
2024-04-30T20:48:23.275Z,87.80
2024-04-30T20:50:50.923Z,87.80
2024-04-30T20:53:18.397Z,88.50
2024-04-30T20:55:45.905Z,88.00
2024-04-30T20:58:13.403Z,88.20
2024-04-30T21:00:41.054Z,88.10
2024-04-30T21:03:09.026Z,88.00
2024-04-30T21:05:36.584Z,88.00
2024-04-30T21:08:04.531Z,88.30
2024-04-30T21:10:32.033Z,88.40
2024-04-30T21:13:00.068Z,88.30
2024-04-30T21:15:27.592Z,88.60
2024-04-30T21:17:55.232Z,88.70
2024-04-30T21:20:22.823Z,88.90
2024-04-30T21:22:50.757Z,89.70
2024-04-30T21:25:18.271Z,89.40
2024-04-30T21:27:45.821Z,89.90
2024-04-30T21:30:13.564Z,90.10
2024-04-30T21:32:41.228Z,90.00
2024-04-30T21:35:13.195Z,90.50
2024-04-30T21:37:41.288Z,90.20
2024-04-30T21:40:09.971Z,90.50
2024-04-30T21:42:37.940Z,90.60
2024-04-30T21:45:05.933Z,90.90
2024-04-30T21:47:33.537Z,92.40
2024-04-30T21:50:01.131Z,92.60
2024-04-30T21:52:28.773Z,92.70
2024-04-30T21:54:56.333Z,92.70
2024-04-30T21:57:23.927Z,92.80
2024-04-30T21:59:51.473Z,92.50
2024-04-30T22:02:18.986Z,92.80
2024-04-30T22:04:46.652Z,92.20
2024-04-30T22:07:16.903Z,92.20
2024-04-30T22:09:45.147Z,92.30
2024-04-30T22:12:12.860Z,92.20
2024-04-30T22:14:40.368Z,92.30
2024-04-30T22:17:07.925Z,92.40
2024-04-30T22:19:35.504Z,92.60
2024-04-30T22:22:03.106Z,92.70
2024-04-30T22:24:30.831Z,92.80
2024-04-30T22:26:58.378Z,94.00
2024-04-30T22:29:25.871Z,94.20
2024-04-30T22:31:53.413Z,95.00
2024-04-30T22:34:21.021Z,94.80
2024-04-30T22:36:48.678Z,94.80
2024-04-30T22:39:16.196Z,95.30
2024-04-30T22:41:43.718Z,94.80
2024-04-30T22:44:11.269Z,94.50
2024-04-30T22:46:38.773Z,94.60
2024-04-30T22:49:06.329Z,94.60
2024-04-30T22:51:33.968Z,95.10
2024-04-30T22:54:01.634Z,96.60
2024-04-30T22:56:32.240Z,96.40
2024-04-30T22:59:01.379Z,96.30
2024-04-30T23:01:29.009Z,96.40
2024-04-30T23:03:56.703Z,96.70
2024-04-30T23:06:24.264Z,96.10
2024-04-30T23:08:51.780Z,96.00
2024-04-30T23:11:19.358Z,96.00
2024-04-30T23:13:46.899Z,96.10
2024-04-30T23:16:14.501Z,96.00
2024-04-30T23:18:42.106Z,96.00
2024-04-30T23:21:10.929Z,96.00
2024-04-30T23:23:38.487Z,96.40
2024-04-30T23:26:08.041Z,96.50
2024-04-30T23:28:35.527Z,96.60
2024-04-30T23:31:03.507Z,96.80
2024-04-30T23:33:31.238Z,96.80
2024-04-30T23:35:58.776Z,97.00
2024-04-30T23:38:26.274Z,97.20
2024-04-30T23:40:53.862Z,97.20
2024-04-30T23:43:21.505Z,97.20
2024-04-30T23:45:49.027Z,97.50
2024-04-30T23:48:16.555Z,97.40
2024-04-30T23:50:44.033Z,98.30
2024-04-30T23:53:11.627Z,99.30
2024-04-30T23:55:39.186Z,99.90
2024-04-30T23:58:06.701Z,99.90
